Time;durP1;ratioP1;P1;durP2;ratioP2;P2;SDS_P1;SDS_P2;PMS_P1;PMS_P2;Temp;Humidity;BMP_temperature;BMP_pressure;BME280_temperature;BME280_humidity;BME280_pressure;Samples;Min_cycle;Max_cycle;Signal;HPM_P1;HPM_P2
2023/09/02 00:00:22;;;;;;;4.90;3.70;;;;;;;14.29;84.15;100601.70;105484;277;38281;-74
2023/09/02 00:03:16;;;;;;;6.90;3.80;;;;;;;14.23;83.77;100604.12;105439;325;38544;-73
2023/09/02 00:05:50;;;;;;;6.60;4.20;;;;;;;14.19;84.02;100603.39;105499;266;39649;-74
2023/09/02 00:08:26;;;;;;;6.50;4.00;;;;;;;14.19;83.97;100595.70;105962;277;38684;-72
2023/09/02 00:11:00;;;;;;;7.20;4.40;;;;;;;14.17;83.91;100592.45;105496;277;38914;-72
2023/09/02 00:13:38;;;;;;;6.90;3.90;;;;;;;14.15;84.02;100596.05;105462;278;38432;-72
2023/09/02 00:16:13;;;;;;;8.30;3.70;;;;;;;14.17;84.20;100592.98;105476;278;38979;-74
2023/09/02 00:18:47;;;;;;;5.50;4.50;;;;;;;14.17;84.03;100594.05;105508;277;38499;-72
2023/09/02 00:21:21;;;;;;;6.80;4.20;;;;;;;14.22;84.21;100598.38;105498;277;38255;-72
2023/09/02 00:24:03;;;;;;;5.10;4.30;;;;;;;14.24;83.95;100599.16;105507;277;38482;-73
2023/09/02 00:26:37;;;;;;;6.90;4.00;;;;;;;14.25;83.94;100604.01;105489;277;38510;-73
2023/09/02 00:29:11;;;;;;;6.50;4.00;;;;;;;14.27;84.07;100606.69;105971;277;38284;-73
2023/09/02 00:31:45;;;;;;;7.30;4.10;;;;;;;14.28;83.97;100605.79;105968;278;39441;-74
2023/09/02 00:34:18;;;;;;;8.30;4.30;;;;;;;14.29;84.27;100610.11;105533;278;38749;-73
2023/09/02 00:36:52;;;;;;;7.40;3.70;;;;;;;14.32;84.26;100607.86;105514;277;39969;-73
2023/09/02 00:39:26;;;;;;;7.40;5.00;;;;;;;14.35;84.33;100607.38;105520;277;38566;-73
2023/09/02 00:42:00;;;;;;;8.20;4.20;;;;;;;14.35;83.92;100611.04;105514;277;39292;-73
2023/09/02 00:44:34;;;;;;;5.90;4.00;;;;;;;14.33;83.91;100608.02;105287;277;38462;-73
2023/09/02 00:47:08;;;;;;;4.90;3.70;;;;;;;14.32;84.19;100605.59;105482;277;39718;-73
2023/09/02 00:49:42;;;;;;;7.20;4.30;;;;;;;14.31;84.04;100607.03;105946;281;38332;-72
2023/09/02 00:52:16;;;;;;;6.00;4.40;;;;;;;14.31;84.27;100601.26;105496;277;39414;-72
2023/09/02 00:54:51;;;;;;;7.50;4.20;;;;;;;14.29;84.20;100601.54;105515;277;38593;-73
2023/09/02 00:57:25;;;;;;;7.50;4.40;;;;;;;14.28;84.18;100600.88;105502;277;38271;-73
2023/09/02 00:59:59;;;;;;;6.50;4.60;;;;;;;14.28;84.47;100607.36;105551;277;38224;-74
2023/09/02 01:02:33;;;;;;;6.50;4.40;;;;;;;14.29;84.47;100605.41;105945;277;38690;-72
2023/09/02 01:05:07;;;;;;;6.70;4.00;;;;;;;14.28;84.58;100607.34;105923;277;39989;-72
2023/09/02 01:07:41;;;;;;;7.00;4.20;;;;;;;14.28;84.61;100606.33;105501;277;39568;-73
2023/09/02 01:10:15;;;;;;;6.60;4.70;;;;;;;14.27;84.75;100606.36;105477;277;38512;-73
2023/09/02 01:12:49;;;;;;;4.60;4.10;;;;;;;14.27;84.71;100610.23;105493;277;38138;-73
2023/09/02 01:15:23;;;;;;;7.50;4.50;;;;;;;14.29;84.81;100609.95;105467;277;39821;-73
2023/09/02 01:17:56;;;;;;;5.80;4.10;;;;;;;14.30;84.65;100608.34;105481;277;38498;-73
2023/09/02 01:20:37;;;;;;;6.80;4.70;;;;;;;14.29;84.76;100613.63;105516;277;39458;-73
2023/09/02 01:23:33;;;;;;;5.90;4.10;;;;;;;14.33;84.81;100617.27;105455;277;38755;-73
2023/09/02 01:26:31;;;;;;;6.60;4.10;;;;;;;14.35;84.69;100618.92;105465;277;39677;-73
2023/09/02 01:29:08;;;;;;;5.70;4.10;;;;;;;14.35;84.73;100624.77;105475;277;38934;-73
2023/09/02 01:31:42;;;;;;;5.70;4.40;;;;;;;14.35;84.70;100623.85;105471;277;38607;-73
2023/09/02 01:34:15;;;;;;;10.30;4.20;;;;;;;14.36;84.88;100626.45;105940;277;38627;-75
2023/09/02 01:36:50;;;;;;;7.40;4.50;;;;;;;14.38;85.07;100623.70;105938;277;38766;-74
2023/09/02 01:39:24;;;;;;;6.30;4.70;;;;;;;14.37;84.79;100624.80;105929;277;38487;-73
2023/09/02 01:41:59;;;;;;;6.60;4.70;;;;;;;14.36;84.79;100623.45;105951;277;38251;-73
2023/09/02 01:44:33;;;;;;;5.90;4.00;;;;;;;14.36;84.92;100619.06;105279;279;38672;-72
2023/09/02 01:47:07;;;;;;;6.00;4.30;;;;;;;14.34;84.72;100614.08;105410;277;39322;-72
2023/09/02 01:49:41;;;;;;;7.20;3.90;;;;;;;14.31;84.59;100613.36;105948;278;38314;-73
2023/09/02 01:52:15;;;;;;;5.60;4.30;;;;;;;14.25;84.36;100613.83;105469;278;38257;-73
2023/09/02 01:54:51;;;;;;;8.10;4.40;;;;;;;14.24;84.42;100616.34;105445;278;39388;-73
2023/09/02 01:57:25;;;;;;;7.90;4.30;;;;;;;14.22;84.36;100616.77;105896;278;38864;-73
2023/09/02 01:59:59;;;;;;;10.70;4.20;;;;;;;14.19;84.20;100619.36;105238;278;41310;-74
2023/09/02 02:02:33;;;;;;;9.00;4.60;;;;;;;14.13;84.06;100618.63;105526;277;38778;-74
2023/09/02 02:05:10;;;;;;;6.20;4.60;;;;;;;14.08;84.02;100616.42;105544;277;38327;-74
2023/09/02 02:07:48;;;;;;;6.60;4.60;;;;;;;14.02;83.99;100615.66;105573;277;39506;-74
2023/09/02 02:10:24;;;;;;;5.10;4.10;;;;;;;13.96;84.17;100618.73;105546;277;38379;-74
2023/09/02 02:13:01;;;;;;;7.30;4.60;;;;;;;13.93;84.21;100618.38;105556;277;38546;-74
2023/09/02 02:15:35;;;;;;;7.10;4.30;;;;;;;13.91;84.37;100616.16;105541;277;38818;-74
2023/09/02 02:18:09;;;;;;;8.00;4.30;;;;;;;13.91;84.56;100620.23;105532;277;38360;-73
2023/09/02 02:20:50;;;;;;;5.90;4.10;;;;;;;13.90;84.46;100622.73;105414;277;188291;-73
2023/09/02 02:23:23;;;;;;;8.40;5.30;;;;;;;13.88;84.75;100624.05;105930;277;38288;-72
2023/09/02 02:26:02;;;;;;;7.40;4.70;;;;;;;13.85;84.47;100626.45;105535;277;38873;-72
2023/09/02 02:28:37;;;;;;;8.20;4.90;;;;;;;13.85;84.72;100626.14;105537;277;38403;-73
2023/09/02 02:31:11;;;;;;;7.00;4.40;;;;;;;13.85;84.83;100626.29;105828;277;174384;-73
2023/09/02 02:33:45;;;;;;;5.30;4.20;;;;;;;13.83;84.89;100627.95;105169;277;174466;-73
2023/09/02 02:36:19;;;;;;;5.50;4.90;;;;;;;13.83;85.14;100626.73;105524;277;38447;-74
2023/09/02 02:38:53;;;;;;;6.90;4.30;;;;;;;13.82;85.01;100626.59;105571;277;38236;-73
2023/09/02 02:41:27;;;;;;;7.50;4.50;;;;;;;13.80;84.97;100625.11;105498;277;38887;-73
2023/09/02 02:44:01;;;;;;;5.00;4.30;;;;;;;13.77;84.92;100621.94;105919;273;38323;-72
2023/09/02 02:46:34;;;;;;;6.50;4.40;;;;;;;13.72;84.89;100621.46;105530;277;39431;-72
2023/09/02 02:49:08;;;;;;;5.90;4.20;;;;;;;13.71;85.16;100619.08;105569;277;38511;-73
2023/09/02 02:51:42;;;;;;;6.70;4.00;;;;;;;13.69;85.00;100622.50;105527;277;38354;-73
2023/09/02 02:54:16;;;;;;;8.50;5.10;;;;;;;13.63;84.77;100626.98;105534;277;39926;-73
2023/09/02 02:56:50;;;;;;;6.50;4.40;;;;;;;13.59;84.99;100631.20;105906;277;38517;-73
2023/09/02 02:59:24;;;;;;;6.80;4.30;;;;;;;13.54;85.05;100629.69;105530;277;38443;-73
2023/09/02 03:01:58;;;;;;;7.50;4.50;;;;;;;13.51;85.23;100635.27;105556;277;38274;-73
2023/09/02 03:04:32;;;;;;;7.90;4.40;;;;;;;13.48;85.36;100632.23;105434;277;174361;-73
2023/09/02 03:07:06;;;;;;;7.30;4.10;;;;;;;13.44;85.25;100632.22;105944;277;38212;-73
2023/09/02 03:09:40;;;;;;;7.80;4.40;;;;;;;13.39;85.20;100627.88;105497;277;39402;-73
2023/09/02 03:12:14;;;;;;;7.30;4.20;;;;;;;13.31;84.92;100628.63;105529;277;39834;-73
2023/09/02 03:14:48;;;;;;;5.50;4.20;;;;;;;13.25;85.11;100628.02;105351;277;39060;-73
2023/09/02 03:17:22;;;;;;;5.40;4.70;;;;;;;13.21;85.13;100626.58;105580;277;38488;-73
2023/09/02 03:19:56;;;;;;;6.50;4.40;;;;;;;13.17;85.12;100626.57;105555;277;38323;-72
2023/09/02 03:22:30;;;;;;;5.80;4.70;;;;;;;13.14;85.37;100629.52;105956;278;39262;-72
2023/09/02 03:25:04;;;;;;;6.20;4.40;;;;;;;13.10;85.22;100632.99;104993;277;710278;-72
2023/09/02 03:27:40;;;;;;;6.40;4.40;;;;;;;13.08;85.34;100631.02;105523;277;38299;-72
2023/09/02 03:30:15;;;;;;;6.10;4.20;;;;;;;13.02;85.44;100631.46;105528;277;38332;-72
2023/09/02 03:32:49;;;;;;;7.00;4.80;;;;;;;12.99;85.48;100629.14;105534;277;39310;-72
2023/09/02 03:35:23;;;;;;;4.80;4.00;;;;;;;12.96;85.37;100625.44;105579;277;40039;-72
2023/09/02 03:37:57;;;;;;;7.40;4.20;;;;;;;12.91;85.30;100624.21;105932;277;39693;-72
2023/09/02 03:40:31;;;;;;;6.00;4.10;;;;;;;12.87;85.36;100624.55;105550;277;38509;-72
2023/09/02 03:43:05;;;;;;;7.60;4.30;;;;;;;12.87;85.50;100623.71;105932;277;38854;-73
2023/09/02 03:45:42;;;;;;;6.00;4.20;;;;;;;12.86;85.40;100625.67;105924;278;38252;-73
2023/09/02 03:48:18;;;;;;;6.20;4.50;;;;;;;12.77;85.25;100623.77;105945;277;38813;-72
2023/09/02 03:51:12;;;;;;;5.50;4.30;;;;;;;12.73;85.38;100622.90;105534;277;39402;-72
2023/09/02 03:53:46;;;;;;;6.20;4.20;;;;;;;12.68;85.23;100623.30;105566;277;38415;-73
2023/09/02 03:56:20;;;;;;;5.50;4.10;;;;;;;12.64;85.17;100623.46;105563;277;38517;-73
2023/09/02 03:58:54;;;;;;;6.40;4.40;;;;;;;12.62;85.21;100625.85;105551;277;38479;-73
2023/09/02 04:01:28;;;;;;;7.70;4.50;;;;;;;12.60;85.52;100628.02;105938;277;39948;-73
2023/09/02 04:04:02;;;;;;;5.80;4.60;;;;;;;12.60;85.63;100629.42;105946;277;38719;-73
2023/09/02 04:06:37;;;;;;;5.70;3.70;;;;;;;12.59;85.75;100632.05;105547;277;39276;-73
2023/09/02 04:09:11;;;;;;;7.20;4.00;;;;;;;12.61;85.74;100633.39;105948;277;39910;-72
2023/09/02 04:11:45;;;;;;;4.60;4.20;;;;;;;12.60;85.73;100632.02;105297;277;38595;-72
2023/09/02 04:14:19;;;;;;;6.90;4.50;;;;;;;12.61;85.73;100634.63;105556;277;38419;-72
2023/09/02 04:16:54;;;;;;;5.90;4.00;;;;;;;12.58;85.58;100632.45;105472;277;174503;-72
2023/09/02 04:19:28;;;;;;;4.70;4.00;;;;;;;12.55;85.50;100638.38;105941;277;38513;-72
2023/09/02 04:22:02;;;;;;;5.30;4.00;;;;;;;12.53;85.48;100637.05;105968;277;39216;-72
2023/09/02 04:24:37;;;;;;;4.80;3.70;;;;;;;12.50;85.53;100637.91;105550;277;39637;-72
2023/09/02 04:27:11;;;;;;;8.10;3.90;;;;;;;12.47;85.47;100640.80;105583;277;39398;-73
2023/09/02 04:29:45;;;;;;;6.80;4.20;;;;;;;12.52;86.17;100643.21;105958;277;39418;-72
2023/09/02 04:32:22;;;;;;;4.50;4.10;;;;;;;12.59;86.47;100648.02;105969;277;40181;-72
2023/09/02 04:34:56;;;;;;;6.70;4.40;;;;;;;12.64;86.76;100646.02;105589;277;38818;-73
2023/09/02 04:37:31;;;;;;;6.20;4.60;;;;;;;12.69;86.78;100648.48;105942;277;40006;-73
2023/09/02 04:40:07;;;;;;;4.80;4.10;;;;;;;12.72;86.74;100645.90;105549;277;38704;-73
2023/09/02 04:42:43;;;;;;;6.40;4.20;;;;;;;12.74;86.74;100647.02;105896;277;39688;-72
2023/09/02 04:45:17;;;;;;;7.30;4.70;;;;;;;12.76;86.89;100652.19;105950;277;38437;-72
2023/09/02 04:47:51;;;;;;;6.00;4.30;;;;;;;12.80;87.30;100656.73;105546;277;38693;-73
2023/09/02 04:50:25;;;;;;;4.60;4.20;;;;;;;12.85;87.47;100663.35;105925;281;38776;-73
2023/09/02 04:52:59;;;;;;;5.40;4.40;;;;;;;12.92;87.71;100666.23;105547;277;39836;-73
2023/09/02 04:55:33;;;;;;;5.90;4.40;;;;;;;13.01;88.19;100669.34;105288;277;38284;-73
2023/09/02 04:58:08;;;;;;;7.80;4.80;;;;;;;13.06;88.08;100668.95;105529;277;39954;-73
2023/09/02 05:00:42;;;;;;;8.80;5.50;;;;;;;13.11;88.23;100668.90;105553;277;39568;-73
2023/09/02 05:03:16;;;;;;;6.40;4.40;;;;;;;13.16;88.38;100670.58;105942;277;39219;-73
2023/09/02 05:05:50;;;;;;;9.10;5.20;;;;;;;13.27;88.84;100675.04;105539;277;39044;-73
2023/09/02 05:08:24;;;;;;;8.20;5.20;;;;;;;13.34;88.95;100676.84;105549;277;38267;-73
2023/09/02 05:10:58;;;;;;;7.90;5.00;;;;;;;13.41;88.96;100680.88;105964;277;38426;-73
2023/09/02 05:13:32;;;;;;;9.60;5.00;;;;;;;13.49;89.18;100681.41;105945;277;39985;-73
2023/09/02 05:16:06;;;;;;;7.00;4.90;;;;;;;13.60;89.42;100682.35;105963;277;38309;-73
2023/09/02 05:18:40;;;;;;;5.90;4.70;;;;;;;13.70;89.66;100683.09;105285;277;39761;-73
2023/09/02 05:21:14;;;;;;;6.60;4.90;;;;;;;13.81;89.63;100684.87;105305;279;40220;-73
2023/09/02 05:23:48;;;;;;;8.00;5.10;;;;;;;13.93;89.83;100688.17;105511;277;39637;-72
2023/09/02 05:26:22;;;;;;;8.00;4.70;;;;;;;14.10;90.30;100687.70;105267;277;897262;-72
2023/09/02 05:28:55;;;;;;;7.20;4.40;;;;;;;14.44;90.79;100688.56;105910;277;39426;-72
2023/09/02 05:31:30;;;;;;;6.40;4.70;;;;;;;14.73;90.94;100694.17;105925;277;38542;-73
2023/09/02 05:34:04;;;;;;;6.30;5.10;;;;;;;14.94;91.42;100691.33;105533;277;39710;-74
2023/09/02 05:36:38;;;;;;;9.70;6.60;;;;;;;15.30;94.24;100692.82;105491;277;38247;-74
2023/09/02 05:39:12;;;;;;;8.80;6.90;;;;;;;15.81;98.99;100697.70;105961;277;39454;-74
2023/09/02 05:41:48;;;;;;;8.10;6.40;;;;;;;16.70;100.00;100695.62;105483;277;38763;-74
2023/09/02 05:44:21;;;;;;;10.30;6.60;;;;;;;18.03;98.73;100689.33;105530;277;39436;-74
2023/09/02 05:46:55;;;;;;;7.90;6.90;;;;;;;19.37;90.94;100689.19;105527;277;38763;-75
2023/09/02 05:49:29;;;;;;;7.50;6.70;;;;;;;20.50;82.67;100693.34;105938;277;38740;-75
2023/09/02 05:52:03;;;;;;;10.50;7.00;;;;;;;21.42;76.78;100694.00;105512;277;38364;-75
2023/09/02 05:54:37;;;;;;;10.10;6.70;;;;;;;22.19;72.14;100694.61;105536;277;38501;-74
2023/09/02 05:57:11;;;;;;;13.00;6.90;;;;;;;22.49;66.72;100690.53;104906;277;904199;-74
2023/09/02 05:59:46;;;;;;;11.60;6.60;;;;;;;22.54;64.96;100697.38;105521;277;38535;-74
2023/09/02 06:02:20;;;;;;;8.90;6.80;;;;;;;22.69;63.72;100697.77;105556;277;38415;-74
2023/09/02 06:04:55;;;;;;;8.70;6.70;;;;;;;23.27;63.85;100694.80;105545;277;38246;-75
2023/09/02 06:07:29;;;;;;;7.80;6.70;;;;;;;24.13;61.75;100697.23;105536;277;38234;-75
2023/09/02 06:10:03;;;;;;;8.30;6.00;;;;;;;24.92;59.08;100699.43;105574;277;38412;-73
2023/09/02 06:12:37;;;;;;;9.40;6.00;;;;;;;25.63;56.03;100697.05;105272;277;40356;-73
2023/09/02 06:15:12;;;;;;;7.30;5.70;;;;;;;26.16;53.89;100698.56;105522;277;38662;-73
2023/09/02 06:17:46;;;;;;;6.60;5.60;;;;;;;26.20;51.75;100701.05;105555;277;38324;-72
2023/09/02 06:20:22;;;;;;;8.40;6.30;;;;;;;26.04;51.05;100706.36;105932;277;39815;-72
2023/09/02 06:22:56;;;;;;;8.10;6.20;;;;;;;25.97;50.88;100709.54;105546;277;39959;-72
2023/09/02 06:25:30;;;;;;;8.80;5.90;;;;;;;25.69;50.30;100712.91;105526;277;38898;-71
2023/09/02 06:28:05;;;;;;;9.00;5.90;;;;;;;25.27;50.52;100721.52;105534;277;38251;-72
2023/09/02 06:30:40;;;;;;;9.10;6.60;;;;;;;24.74;51.05;100723.81;105540;277;38260;-71
2023/09/02 06:33:14;;;;;;;11.90;6.10;;;;;;;24.21;52.36;100727.17;105260;279;39510;-72
2023/09/02 06:35:49;;;;;;;9.30;5.70;;;;;;;23.80;53.36;100724.80;105522;277;38948;-72
2023/09/02 06:38:23;;;;;;;8.10;6.10;;;;;;;23.54;54.29;100730.96;105927;277;39216;-71
2023/09/02 06:40:57;;;;;;;9.80;6.10;;;;;;;23.26;54.84;100731.38;105550;277;38881;-71
2023/09/02 06:43:32;;;;;;;8.50;5.90;;;;;;;23.01;55.28;100730.63;105531;277;38403;-71
2023/09/02 06:46:14;;;;;;;7.20;5.80;;;;;;;22.75;55.57;100728.56;105923;277;38799;-71
2023/09/02 06:48:49;;;;;;;7.90;5.90;;;;;;;22.49;56.34;100729.80;105537;277;39992;-72
2023/09/02 06:51:23;;;;;;;6.90;5.50;;;;;;;22.31;56.94;100730.95;105548;277;40034;-72
2023/09/02 06:53:57;;;;;;;8.60;5.10;;;;;;;22.17;57.37;100735.48;105533;277;38757;-72
2023/09/02 06:56:31;;;;;;;7.20;5.30;;;;;;;22.05;57.54;100734.08;105934;293;38274;-72
2023/09/02 06:59:05;;;;;;;9.80;5.40;;;;;;;21.91;57.62;100737.33;105562;277;39424;-72
2023/09/02 07:01:39;;;;;;;6.60;5.20;;;;;;;21.83;58.07;100739.59;105500;277;38285;-72
2023/09/02 07:04:14;;;;;;;9.20;4.80;;;;;;;21.77;57.68;100739.16;105534;277;38605;-71
2023/09/02 07:06:48;;;;;;;5.70;4.60;;;;;;;21.77;58.40;100742.90;105295;279;38385;-70
2023/09/02 07:09:22;;;;;;;6.70;4.70;;;;;;;21.89;58.50;100742.30;105252;277;38462;-71
2023/09/02 07:11:56;;;;;;;5.30;4.30;;;;;;;22.09;58.48;100745.17;105943;277;38274;-71
2023/09/02 07:14:30;;;;;;;7.70;3.60;;;;;;;22.34;58.44;100743.35;105936;277;38574;-72
2023/09/02 07:17:04;;;;;;;4.00;3.20;;;;;;;22.55;57.60;100753.52;105932;277;39467;-73
2023/09/02 07:19:40;;;;;;;5.20;3.30;;;;;;;22.77;57.10;100755.91;105551;277;38243;-74
2023/09/02 07:22:14;;;;;;;4.80;3.40;;;;;;;22.94;56.48;100756.36;105283;278;38285;-74
2023/09/02 07:24:49;;;;;;;5.80;2.70;;;;;;;23.11;55.09;100757.62;105541;277;38246;-74
2023/09/02 07:27:23;;;;;;;4.30;3.10;;;;;;;23.17;54.11;100760.25;105555;277;39395;-74
2023/09/02 07:30:01;;;;;;;4.00;3.00;;;;;;;23.20;54.03;100761.84;105555;277;38639;-74
2023/09/02 07:32:36;;;;;;;4.00;3.30;;;;;;;23.11;53.66;100764.13;105553;277;38506;-74
2023/09/02 07:35:12;;;;;;;3.10;2.80;;;;;;;23.06;54.37;100761.23;105539;277;38558;-74
2023/09/02 07:37:45;;;;;;;3.50;3.10;;;;;;;23.06;54.47;100763.17;105551;277;38235;-72
2023/09/02 07:40:19;;;;;;;3.30;2.60;;;;;;;23.07;54.58;100766.50;105912;277;39454;-73
2023/09/02 07:42:53;;;;;;;3.40;2.50;;;;;;;23.14;54.11;100773.89;105945;270;38501;-71
2023/09/02 07:45:27;;;;;;;3.90;2.50;;;;;;;23.27;54.01;100781.70;105538;277;39648;-71
2023/09/02 07:48:01;;;;;;;3.20;2.20;;;;;;;23.41;53.66;100784.07;105926;277;39669;-71
2023/09/02 07:50:35;;;;;;;3.40;2.50;;;;;;;23.51;52.73;100782.81;105907;277;38710;-71
2023/09/02 07:53:09;;;;;;;4.00;2.30;;;;;;;23.71;52.56;100786.63;105547;277;38229;-71
2023/09/02 07:55:43;;;;;;;3.50;2.10;;;;;;;23.98;51.29;100787.35;105547;277;39415;-71
2023/09/02 07:58:17;;;;;;;3.80;2.50;;;;;;;24.20;51.04;100785.77;105532;277;39694;-71
2023/09/02 08:00:51;;;;;;;3.00;2.20;;;;;;;24.43;50.03;100787.14;105536;277;38602;-71
2023/09/02 08:03:25;;;;;;;2.80;2.10;;;;;;;24.69;49.22;100782.56;105523;277;38230;-72
2023/09/02 08:06:04;;;;;;;3.80;2.20;;;;;;;25.15;48.90;100788.95;105930;277;40417;-72
2023/09/02 08:08:37;;;;;;;3.70;2.60;;;;;;;25.63;48.69;100786.73;105546;277;38266;-72
2023/09/02 08:11:14;;;;;;;4.10;2.80;;;;;;;26.15;48.41;100786.59;105942;277;39868;-72
2023/09/02 08:13:48;;;;;;;2.30;2.10;;;;;;;26.70;46.25;100784.61;105536;278;38277;-73
2023/09/02 08:16:22;;;;;;;2.80;1.70;;;;;;;27.26;44.54;100790.87;105535;277;39631;-73
2023/09/02 08:18:56;;;;;;;2.20;1.80;;;;;;;27.82;42.60;100792.06;105542;277;38461;-73
2023/09/02 08:21:30;;;;;;;3.00;1.80;;;;;;;28.39;41.28;100788.06;105899;277;39498;-73
2023/09/02 08:24:04;;;;;;;3.00;2.10;;;;;;;29.11;41.22;100791.55;105537;277;39276;-75
2023/09/02 08:26:38;;;;;;;3.50;1.80;;;;;;;29.94;39.93;100792.73;105926;277;39524;-77
2023/09/02 08:29:12;;;;;;;2.70;2.00;;;;;;;30.65;38.29;100789.40;105496;277;39391;-73
2023/09/02 08:31:45;;;;;;;4.60;2.00;;;;;;;31.18;36.56;100794.39;105493;277;38213;-73
2023/09/02 08:34:19;;;;;;;3.30;2.40;;;;;;;31.53;35.90;100797.74;105522;277;38856;-74
2023/09/02 08:36:53;;;;;;;4.30;2.00;;;;;;;31.84;34.64;100795.70;105540;277;38370;-74
2023/09/02 08:39:27;;;;;;;1.90;1.60;;;;;;;32.02;33.45;100797.23;105506;277;38351;-73
2023/09/02 08:42:01;;;;;;;2.50;1.70;;;;;;;32.20;33.74;100798.65;105799;277;187672;-73
2023/09/02 08:44:37;;;;;;;1.50;1.40;;;;;;;32.46;32.74;100801.33;105516;275;38322;-74
2023/09/02 08:47:11;;;;;;;2.70;1.70;;;;;;;32.66;32.49;100804.18;105471;277;38719;-75
2023/09/02 08:49:45;;;;;;;2.70;1.70;;;;;;;32.80;31.32;100806.45;105475;277;39435;-74
2023/09/02 08:52:22;;;;;;;3.50;2.00;;;;;;;32.93;31.08;100812.53;105941;277;39675;-74
2023/09/02 08:54:55;;;;;;;2.10;1.90;;;;;;;33.16;30.97;100812.70;105525;277;38923;-74
2023/09/02 08:57:30;;;;;;;2.60;1.70;;;;;;;33.32;31.41;100810.80;105306;277;38709;-74
2023/09/02 09:00:05;;;;;;;3.10;1.50;;;;;;;33.52;30.91;100812.43;105912;277;38869;-74
2023/09/02 09:02:40;;;;;;;3.60;1.60;;;;;;;33.70;30.53;100814.61;105551;277;38274;-73
2023/09/02 09:05:14;;;;;;;3.10;1.70;;;;;;;33.89;29.64;100814.70;105564;277;39199;-73
2023/09/02 09:07:50;;;;;;;2.60;1.50;;;;;;;33.94;29.60;100818.41;105575;277;38285;-73
2023/09/02 09:10:24;;;;;;;2.20;1.50;;;;;;;34.01;29.72;100816.95;105570;277;38522;-73
2023/09/02 09:12:58;;;;;;;1.50;1.20;;;;;;;34.02;29.19;100818.27;105528;277;38358;-74
2023/09/02 09:15:32;;;;;;;2.50;1.60;;;;;;;33.96;28.74;100821.70;105544;277;38723;-75
2023/09/02 09:18:07;;;;;;;3.30;1.50;;;;;;;33.84;29.01;100818.84;105555;277;38371;-73
2023/09/02 09:20:41;;;;;;;1.80;1.50;;;;;;;33.75;29.63;100822.68;105550;277;39450;-73
2023/09/02 09:23:15;;;;;;;2.30;1.80;;;;;;;33.69;29.52;100820.89;105330;277;39699;-74
2023/09/02 09:25:52;;;;;;;2.20;1.60;;;;;;;33.69;29.21;100820.36;105539;277;39408;-75
2023/09/02 09:28:27;;;;;;;4.20;2.00;;;;;;;33.80;29.40;100822.31;104918;277;880579;-73
2023/09/02 09:31:02;;;;;;;2.30;1.60;;;;;;;33.93;29.10;100825.59;105952;277;38240;-73
2023/09/02 09:33:38;;;;;;;4.50;1.90;;;;;;;33.95;29.13;100832.95;105556;277;38242;-74
2023/09/02 09:36:17;;;;;;;2.70;1.50;;;;;;;33.90;29.73;100828.15;105321;279;38333;-73
2023/09/02 09:38:53;;;;;;;2.70;1.90;;;;;;;33.68;29.63;100830.42;105564;277;38233;-73
2023/09/02 09:41:27;;;;;;;3.60;1.80;;;;;;;33.48;29.46;100829.80;105533;277;38265;-72
2023/09/02 09:44:19;;;;;;;2.20;1.70;;;;;;;32.93;29.70;100830.61;105529;277;38270;-73
2023/09/02 09:46:57;;;;;;;2.20;1.70;;;;;;;32.44;30.12;100837.25;105290;277;38883;-72
2023/09/02 09:49:32;;;;;;;5.60;2.20;;;;;;;31.94;30.17;100835.30;105518;277;38726;-73
2023/09/02 09:52:15;;;;;;;3.50;1.60;;;;;;;31.41;30.68;100834.55;105494;277;38294;-74
2023/09/02 09:54:51;;;;;;;2.90;1.70;;;;;;;31.01;31.46;100837.46;105541;277;38445;-72
2023/09/02 09:57:35;;;;;;;3.00;1.70;;;;;;;30.58;31.62;100846.26;105553;277;39712;-73
2023/09/02 10:00:15;;;;;;;3.30;1.70;;;;;;;30.14;32.39;100848.36;105521;281;39434;-73
2023/09/02 10:02:55;;;;;;;2.80;1.60;;;;;;;29.78;32.71;100850.45;105552;277;38600;-72
2023/09/02 10:05:30;;;;;;;3.40;1.90;;;;;;;29.49;33.15;100845.09;105347;277;38482;-72
2023/09/02 10:08:08;;;;;;;2.70;1.70;;;;;;;29.29;33.37;100851.71;105493;277;39514;-73
2023/09/02 10:10:43;;;;;;;3.30;2.10;;;;;;;29.09;33.78;100851.27;105515;277;39417;-75
2023/09/02 10:13:18;;;;;;;3.00;1.80;;;;;;;28.85;34.19;100847.58;105557;277;38509;-72
2023/09/02 10:15:52;;;;;;;2.40;2.20;;;;;;;28.72;34.20;100843.23;105553;277;39804;-71
2023/09/02 10:18:28;;;;;;;2.90;1.80;;;;;;;28.60;34.83;100850.23;104889;277;887642;-71
2023/09/02 10:21:02;;;;;;;2.70;1.60;;;;;;;28.48;35.17;100852.22;105527;277;38275;-72
2023/09/02 10:23:36;;;;;;;2.90;1.90;;;;;;;28.43;35.09;100851.11;105966;277;39146;-72
2023/09/02 10:26:12;;;;;;;1.90;1.70;;;;;;;28.34;34.39;100855.48;105968;277;38728;-72
2023/09/02 10:28:49;;;;;;;1.70;1.60;;;;;;;28.03;34.59;100856.41;105437;277;171184;-74
2023/09/02 10:31:26;;;;;;;4.90;1.80;;;;;;;27.74;35.07;100860.16;105537;277;38749;-73
2023/09/02 10:34:08;;;;;;;2.60;1.70;;;;;;;27.53;35.28;100857.60;105550;277;38395;-71
2023/09/02 10:36:45;;;;;;;2.00;1.50;;;;;;;27.44;35.96;100854.58;105949;277;39509;-71
2023/09/02 10:39:23;;;;;;;1.80;1.60;;;;;;;27.30;35.88;100857.39;105537;277;38256;-74
2023/09/02 10:41:57;;;;;;;3.00;1.70;;;;;;;27.19;35.81;100862.86;105540;277;39662;-74
2023/09/02 10:44:31;;;;;;;2.60;2.00;;;;;;;27.20;36.74;100862.30;105522;277;38244;-74
2023/09/02 10:47:05;;;;;;;2.40;1.60;;;;;;;27.28;37.01;100861.20;105512;277;39634;-74
2023/09/02 10:49:39;;;;;;;3.10;1.90;;;;;;;27.27;36.87;100861.66;105523;277;39393;-73
2023/09/02 10:52:13;;;;;;;2.00;1.80;;;;;;;27.26;37.26;100862.79;105288;279;38910;-73
2023/09/02 10:55:04;;;;;;;2.20;1.60;;;;;;;27.28;37.46;100865.89;105551;277;38356;-72
2023/09/02 10:57:50;;;;;;;4.40;1.70;;;;;;;27.25;37.51;100861.63;105307;275;39789;-72
2023/09/02 11:00:25;;;;;;;3.90;1.90;;;;;;;27.26;37.19;100865.88;105504;277;38235;-73
2023/09/02 11:03:00;;;;;;;2.20;1.70;;;;;;;27.27;36.87;100866.73;105826;277;173700;-73
2023/09/02 11:05:34;;;;;;;3.40;2.00;;;;;;;27.30;37.05;100867.85;105261;279;38550;-73
2023/09/02 11:08:32;;;;;;;2.90;2.00;;;;;;;27.36;37.19;100867.21;105545;277;38232;-75
2023/09/02 11:11:06;;;;;;;2.90;1.50;;;;;;;27.40;36.75;100871.08;105483;277;38480;-75
2023/09/02 11:14:08;;;;;;;2.30;1.50;;;;;;;27.38;36.58;100872.42;105339;278;40149;-74
2023/09/02 11:16:43;;;;;;;2.00;1.40;;;;;;;27.15;36.61;100874.88;105762;277;39038;-74
2023/09/02 11:19:17;;;;;;;3.90;1.80;;;;;;;26.90;37.00;100874.61;105552;277;38443;-75
2023/09/02 11:21:51;;;;;;;2.20;1.60;;;;;;;26.68;37.21;100882.58;105370;277;40603;-77
2023/09/02 11:24:25;;;;;;;2.30;1.70;;;;;;;26.51;38.06;100882.95;104865;277;706621;-74
2023/09/02 11:27:00;;;;;;;3.60;1.80;;;;;;;26.54;39.01;100882.98;105430;277;38524;-73
2023/09/02 11:29:35;;;;;;;5.10;2.20;;;;;;;26.61;39.00;100883.75;105256;277;40000;-74
2023/09/02 11:32:09;;;;;;;3.10;1.70;;;;;;;26.70;39.13;100881.30;105935;277;38264;-74
2023/09/02 11:34:43;;;;;;;3.10;1.80;;;;;;;26.76;38.79;100879.23;105554;277;38515;-74
2023/09/02 11:37:17;;;;;;;3.40;1.50;;;;;;;26.79;38.11;100883.98;105527;277;39416;-74
2023/09/02 11:39:52;;;;;;;3.50;1.70;;;;;;;26.80;38.34;100879.45;105303;278;38246;-75
2023/09/02 11:42:27;;;;;;;4.20;1.90;;;;;;;26.87;38.43;100884.63;105277;277;39428;-75
2023/09/02 11:45:01;;;;;;;3.80;2.10;;;;;;;26.95;38.51;100879.66;105548;277;38433;-75
2023/09/02 11:47:35;;;;;;;2.60;2.00;;;;;;;27.03;38.66;100884.52;105806;270;171245;-74
2023/09/02 11:50:13;;;;;;;2.40;1.70;;;;;;;27.10;38.81;100885.92;105540;277;38265;-75
2023/09/02 11:52:47;;;;;;;2.00;1.40;;;;;;;27.12;38.53;100881.96;105300;279;38993;-74
2023/09/02 11:55:22;;;;;;;2.70;2.00;;;;;;;27.10;38.15;100884.34;105923;277;38672;-72
2023/09/02 11:57:56;;;;;;;2.20;1.60;;;;;;;27.12;38.38;100884.52;105977;277;38571;-73
2023/09/02 12:00:30;;;;;;;3.60;1.80;;;;;;;27.10;37.50;100883.95;105543;277;39279;-73